Time;durP1;ratioP1;P1;durP2;ratioP2;P2;SDS_P1;SDS_P2;PMS_P1;PMS_P2;Temp;Humidity;BMP_temperature;BMP_pressure;BME280_temperature;BME280_humidity;BME280_pressure;Samples;Min_cycle;Max_cycle;Signal;HPM_P1;HPM_P2
2024/01/29 00:02:06;;;;;;;7.17;4.73;;;-2.10;99.90;-2.60;102084.00;;;;4895419;28;88454;-65
2024/01/29 00:04:31;;;;;;;8.57;5.30;;;-2.00;99.90;-2.60;102078.00;;;;4897439;28;109986;-64
2024/01/29 00:06:57;;;;;;;6.37;3.57;;;-2.10;99.90;-2.70;102082.00;;;;4895757;28;108685;-63
2024/01/29 00:09:23;;;;;;;6.77;4.20;;;-2.10;99.90;-2.60;102084.00;;;;4897708;28;107312;-63
2024/01/29 00:11:49;;;;;;;11.30;4.80;;;-2.20;99.90;-2.60;102089.00;;;;4896945;28;89134;-63
2024/01/29 00:14:15;;;;;;;8.60;4.00;;;-2.20;99.90;-2.60;102081.00;;;;4898494;28;98484;-64
2024/01/29 00:16:40;;;;;;;5.80;3.67;;;-2.20;99.90;-2.60;102089.00;;;;4897675;28;108740;-64
2024/01/29 00:19:06;;;;;;;5.97;4.20;;;-2.10;99.90;-2.60;102081.00;;;;4896965;28;117870;-64
2024/01/29 00:21:31;;;;;;;7.23;4.40;;;-2.20;99.90;-2.60;102068.00;;;;4895417;28;117957;-63
2024/01/29 00:24:00;;;;;;;6.70;4.63;;;-2.10;99.90;-2.60;102075.00;;;;4896438;28;108805;-63
2024/01/29 00:26:27;;;;;;;8.17;5.60;;;-2.10;99.90;-2.60;102080.00;;;;4897863;28;87856;-63
2024/01/29 00:28:52;;;;;;;8.43;5.00;;;-2.20;99.90;-2.60;102066.00;;;;4899153;28;88340;-63
2024/01/29 00:31:18;;;;;;;7.53;5.40;;;-2.10;99.90;-2.60;102064.00;;;;4895937;28;117390;-63
2024/01/29 00:33:46;;;;;;;7.90;4.57;;;-2.20;99.90;-2.60;102069.00;;;;4896412;28;87795;-64
2024/01/29 00:36:11;;;;;;;11.17;4.83;;;-2.00;99.90;-2.60;102069.00;;;;4898327;28;90894;-63
2024/01/29 00:38:37;;;;;;;7.53;4.20;;;-2.00;99.90;-2.60;102072.00;;;;4897085;28;117227;-64
2024/01/29 00:41:03;;;;;;;8.20;5.50;;;-2.20;99.90;-2.60;102061.00;;;;4897260;28;116483;-63
2024/01/29 00:43:28;;;;;;;9.77;5.47;;;-2.00;99.90;-2.60;102070.00;;;;4896898;28;87744;-63
2024/01/29 00:45:54;;;;;;;11.80;5.93;;;-2.10;99.90;-2.60;102069.00;;;;4894892;28;89426;-63
2024/01/29 00:48:22;;;;;;;10.70;5.47;;;-2.20;99.90;-2.70;102057.00;;;;4899117;28;117028;-65
2024/01/29 00:50:49;;;;;;;9.77;4.57;;;-2.30;99.90;-2.70;102068.00;;;;4900011;28;87724;-64
2024/01/29 00:53:15;;;;;;;18.00;5.47;;;-2.30;99.90;-2.70;102056.00;;;;4901480;28;87683;-64
2024/01/29 00:55:44;;;;;;;8.33;4.73;;;-2.20;99.90;-2.70;102069.00;;;;4898351;28;88700;-63
2024/01/29 00:58:10;;;;;;;6.30;3.77;;;-2.30;99.90;-2.70;102077.00;;;;4897504;28;88024;-65
2024/01/29 01:00:35;;;;;;;15.17;6.20;;;-2.10;99.90;-2.60;102075.00;;;;4913180;28;88040;-64
2024/01/29 01:03:01;;;;;;;12.37;5.73;;;-2.20;99.90;-2.60;102070.00;;;;4896832;28;90291;-64
2024/01/29 01:05:27;;;;;;;13.47;5.77;;;-2.10;99.90;-2.60;102080.00;;;;4896914;28;108372;-63
2024/01/29 01:07:53;;;;;;;8.63;4.63;;;-2.20;99.90;-2.60;102066.00;;;;4895911;28;88860;-64
2024/01/29 01:10:18;;;;;;;11.97;6.17;;;-2.30;99.90;-2.60;102066.00;;;;4896881;28;117323;-64
2024/01/29 01:12:44;;;;;;;13.00;5.17;;;-2.00;99.90;-2.60;102056.00;;;;4896150;28;109393;-63
2024/01/29 01:15:10;;;;;;;8.53;4.83;;;-2.20;99.90;-2.60;102048.00;;;;4897626;28;108687;-63
2024/01/29 01:17:35;;;;;;;8.90;4.43;;;-1.90;99.90;-2.70;102048.00;;;;4891544;28;117237;-64
2024/01/29 01:20:02;;;;;;;5.90;4.57;;;-2.20;99.90;-2.70;102048.00;;;;4897308;28;118038;-63
2024/01/29 01:22:28;;;;;;;11.83;6.20;;;-2.30;99.90;-2.70;102041.00;;;;4900756;28;87670;-63
2024/01/29 01:24:54;;;;;;;11.33;5.33;;;-2.30;99.90;-2.70;102032.00;;;;4894767;28;107197;-64
2024/01/29 01:27:19;;;;;;;11.77;5.60;;;-2.20;99.90;-2.70;102026.00;;;;4894484;28;88274;-64
2024/01/29 01:29:45;;;;;;;9.20;5.47;;;-2.30;99.90;-2.70;102033.00;;;;4898076;28;88004;-63
2024/01/29 01:32:11;;;;;;;9.03;5.60;;;-2.20;99.90;-2.70;102039.00;;;;4895606;28;105975;-64
2024/01/29 01:34:36;;;;;;;7.83;4.70;;;-2.20;99.90;-2.70;102041.00;;;;4893937;28;106451;-63
2024/01/29 01:37:02;;;;;;;13.20;5.87;;;-2.30;99.90;-2.70;102041.00;;;;4900668;28;88059;-65
2024/01/29 01:39:31;;;;;;;7.73;5.23;;;-2.20;99.90;-2.60;102040.00;;;;4900094;28;88465;-63
2024/01/29 01:41:57;;;;;;;11.63;5.77;;;-2.20;99.90;-2.60;102043.00;;;;4900803;28;87884;-65
2024/01/29 01:44:22;;;;;;;10.43;5.97;;;-2.20;99.90;-2.60;102035.00;;;;4898827;28;107352;-63
2024/01/29 01:46:48;;;;;;;8.20;4.13;;;-2.30;99.90;-2.60;102022.00;;;;4900514;28;116165;-66
2024/01/29 01:49:15;;;;;;;12.23;4.17;;;-2.40;99.90;-2.60;102032.00;;;;4900054;28;87624;-63
2024/01/29 01:51:41;;;;;;;7.43;5.40;;;-2.10;99.90;-2.60;102026.00;;;;4912481;28;89305;-63
2024/01/29 01:54:08;;;;;;;8.80;4.67;;;-2.20;99.90;-2.60;102022.00;;;;4910391;28;97404;-64
2024/01/29 01:56:35;;;;;;;7.43;4.17;;;-2.20;99.90;-2.60;102029.00;;;;4909322;28;117944;-64
2024/01/29 01:59:04;;;;;;;9.53;4.97;;;-2.00;99.90;-2.60;102016.00;;;;4897516;28;110294;-64
2024/01/29 02:01:31;;;;;;;8.60;5.00;;;-2.10;99.90;-2.60;102009.00;;;;4896309;28;87323;-64
2024/01/29 02:03:58;;;;;;;10.17;4.93;;;-2.00;99.90;-2.60;102021.00;;;;4899477;28;87960;-64
2024/01/29 02:06:24;;;;;;;6.70;3.97;;;-2.10;99.90;-2.60;102020.00;;;;4898927;28;89482;-63
2024/01/29 02:08:50;;;;;;;7.73;4.43;;;-2.10;99.90;-2.60;102021.00;;;;4896142;28;109295;-63
2024/01/29 02:11:15;;;;;;;7.80;4.63;;;-2.00;99.90;-2.60;102026.00;;;;4895663;28;111317;-63
2024/01/29 02:13:41;;;;;;;8.50;4.67;;;-2.00;99.90;-2.60;102030.00;;;;4898944;28;107772;-63
2024/01/29 02:16:07;;;;;;;11.20;5.33;;;-2.10;99.90;-2.60;102013.00;;;;4894034;28;117056;-64
2024/01/29 02:18:33;;;;;;;10.33;5.90;;;-2.20;99.90;-2.60;102006.00;;;;4898482;28;89490;-64
2024/01/29 02:20:59;;;;;;;9.73;4.83;;;-2.10;99.90;-2.60;102001.00;;;;4897729;28;99208;-63
2024/01/29 02:23:25;;;;;;;9.73;5.53;;;-2.20;99.90;-2.60;101996.00;;;;4892560;28;108205;-63
2024/01/29 02:25:51;;;;;;;10.13;4.27;;;-2.20;99.90;-2.60;102000.00;;;;4899481;28;87819;-64
2024/01/29 02:28:16;;;;;;;7.50;5.20;;;-2.00;99.90;-2.60;101984.00;;;;4897736;28;89256;-64
2024/01/29 02:30:42;;;;;;;5.27;3.60;;;-2.10;99.90;-2.60;101995.00;;;;4901406;28;110158;-65
2024/01/29 02:33:08;;;;;;;6.63;3.70;;;-2.10;99.90;-2.60;101999.00;;;;4897374;28;108658;-64
2024/01/29 02:35:33;;;;;;;23.13;10.17;;;-2.00;99.90;-2.60;101989.00;;;;4897578;28;87984;-64
2024/01/29 02:37:59;;;;;;;12.43;5.30;;;-2.10;99.90;-2.70;101993.00;;;;4896040;28;116712;-64
2024/01/29 02:40:25;;;;;;;8.00;4.67;;;-2.20;99.90;-2.70;101997.00;;;;4903045;28;87983;-64
2024/01/29 02:42:50;;;;;;;10.67;6.07;;;-2.30;99.90;-2.80;101992.00;;;;4900924;28;94619;-64
2024/01/29 02:45:16;;;;;;;10.87;4.77;;;-2.60;99.90;-2.80;101986.00;;;;4897456;28;88208;-64
2024/01/29 02:47:42;;;;;;;8.17;4.50;;;-2.30;99.90;-2.80;101993.00;;;;4894065;28;117341;-64
2024/01/29 02:50:08;;;;;;;6.63;4.67;;;-2.30;99.90;-2.90;101979.00;;;;4895529;28;111026;-64
2024/01/29 02:52:34;;;;;;;8.77;5.13;;;-2.30;99.90;-2.90;101972.00;;;;4897996;28;97738;-65
2024/01/29 02:54:59;;;;;;;6.73;4.67;;;-2.40;99.90;-3.00;101976.00;;;;4898462;28;117549;-64
2024/01/29 02:57:25;;;;;;;12.03;5.33;;;-2.40;99.90;-3.00;101980.00;;;;4895888;28;89973;-64
2024/01/29 02:59:51;;;;;;;8.70;4.83;;;-2.50;99.90;-3.00;101971.00;;;;4899710;28;110171;-64
2024/01/29 03:02:17;;;;;;;8.40;4.80;;;-2.60;99.90;-3.00;101977.00;;;;4898084;28;98716;-64
2024/01/29 03:04:43;;;;;;;8.90;5.00;;;-2.50;99.90;-3.10;101975.00;;;;4900893;28;88466;-64
2024/01/29 03:07:09;;;;;;;10.80;4.40;;;-2.50;99.90;-3.10;101957.00;;;;4897576;28;88394;-64
2024/01/29 03:09:35;;;;;;;9.27;4.40;;;-2.70;99.90;-3.10;101960.00;;;;4899085;28;87604;-64
2024/01/29 03:12:01;;;;;;;7.30;4.90;;;-2.60;99.90;-3.20;101950.00;;;;4897508;28;88146;-65
2024/01/29 03:14:27;;;;;;;8.83;4.80;;;-2.60;99.90;-3.20;101945.00;;;;4897744;28;116589;-64
2024/01/29 03:16:52;;;;;;;9.53;5.57;;;-2.60;99.90;-3.20;101968.00;;;;4901064;28;105388;-65
2024/01/29 03:19:18;;;;;;;11.73;4.37;;;-2.80;99.90;-3.20;101954.00;;;;4899230;28;87960;-64
2024/01/29 03:21:44;;;;;;;8.90;4.93;;;-2.70;99.90;-3.20;101949.00;;;;4901802;28;89109;-64
2024/01/29 03:24:10;;;;;;;8.73;4.77;;;-2.70;99.90;-3.20;101950.00;;;;4892885;28;109032;-65
2024/01/29 03:26:36;;;;;;;8.33;4.77;;;-2.70;99.90;-3.30;101944.00;;;;4894147;28;88418;-65
2024/01/29 03:29:02;;;;;;;9.63;4.13;;;-2.80;99.90;-3.30;101935.00;;;;4898239;28;97682;-64
2024/01/29 03:31:27;;;;;;;6.63;4.67;;;-2.70;99.90;-3.30;101946.00;;;;4897387;28;88274;-64
2024/01/29 03:33:53;;;;;;;7.50;4.60;;;-2.80;99.90;-3.30;101942.00;;;;4895527;28;117458;-64
2024/01/29 03:36:19;;;;;;;4.60;3.70;;;-2.80;99.90;-3.30;101936.00;;;;4901936;28;88454;-64
2024/01/29 03:38:45;;;;;;;8.60;4.37;;;-2.80;99.90;-3.30;101936.00;;;;4899021;28;110645;-64
2024/01/29 03:41:11;;;;;;;9.60;4.27;;;-2.70;99.90;-3.30;101928.00;;;;4897379;28;108092;-65
2024/01/29 03:43:37;;;;;;;11.17;5.20;;;-2.80;99.90;-3.30;101949.00;;;;4901152;28;116206;-64
2024/01/29 03:46:02;;;;;;;11.63;5.30;;;-2.80;99.90;-3.30;101943.00;;;;4897133;28;88949;-64
2024/01/29 03:48:29;;;;;;;8.63;5.27;;;-2.70;99.90;-3.20;101940.00;;;;4900415;28;100108;-65
2024/01/29 03:50:55;;;;;;;11.27;5.87;;;-2.70;99.90;-3.20;101943.00;;;;4900071;28;87955;-64
2024/01/29 03:53:20;;;;;;;9.60;5.57;;;-2.70;99.90;-3.30;101945.00;;;;4898263;28;100687;-64
2024/01/29 03:55:46;;;;;;;9.17;4.73;;;-2.70;99.90;-3.30;101946.00;;;;4896814;28;88091;-63
2024/01/29 03:58:13;;;;;;;9.77;5.93;;;-2.80;99.90;-3.30;101946.00;;;;4896319;28;87782;-64
2024/01/29 04:00:39;;;;;;;16.50;6.37;;;-2.70;99.90;-3.30;101940.00;;;;4898017;28;99447;-64
2024/01/29 04:03:07;;;;;;;9.97;4.93;;;-2.70;99.90;-3.30;101934.00;;;;4899751;28;88306;-64
2024/01/29 04:05:33;;;;;;;6.70;5.40;;;-2.70;99.90;-3.30;101934.00;;;;4896001;28;99985;-63
2024/01/29 04:07:59;;;;;;;16.80;5.33;;;-2.80;99.90;-3.30;101939.00;;;;4897491;28;97880;-63
2024/01/29 04:10:25;;;;;;;14.53;5.70;;;-2.80;99.90;-3.30;101936.00;;;;4895509;28;108367;-64
2024/01/29 04:12:51;;;;;;;6.40;4.43;;;-2.80;99.90;-3.30;101921.00;;;;4895506;28;117668;-64
2024/01/29 04:15:17;;;;;;;11.17;6.03;;;-2.80;99.90;-3.40;101931.00;;;;4896085;28;117533;-63
2024/01/29 04:17:42;;;;;;;13.50;4.80;;;-2.80;99.90;-3.40;101929.00;;;;4896912;28;87493;-63
2024/01/29 04:20:09;;;;;;;8.30;4.97;;;-2.90;99.90;-3.30;101934.00;;;;4892062;28;109490;-63
2024/01/29 04:22:35;;;;;;;6.67;4.37;;;-2.90;99.90;-3.30;101945.00;;;;4900553;28;87929;-63
2024/01/29 04:25:06;;;;;;;6.60;5.47;;;-2.00;99.90;-3.30;101938.00;;;;4894224;28;117959;-64
2024/01/29 04:27:32;;;;;;;13.13;5.20;;;-2.10;99.90;-3.30;101950.00;;;;4898864;28;87072;-63
2024/01/29 04:29:57;;;;;;;8.83;4.37;;;-2.80;99.90;-3.30;101935.00;;;;4899343;28;87896;-65
2024/01/29 04:32:23;;;;;;;9.13;5.27;;;-2.70;99.90;-3.30;101934.00;;;;4895029;28;117080;-64
2024/01/29 04:34:49;;;;;;;10.33;5.37;;;-2.80;99.90;-3.30;101925.00;;;;4897887;28;116446;-63
2024/01/29 04:37:15;;;;;;;7.43;4.67;;;-2.80;99.90;-3.30;101934.00;;;;4899404;28;87727;-63
2024/01/29 04:39:40;;;;;;;11.30;4.13;;;-2.70;99.90;-3.30;101942.00;;;;4896287;28;100298;-64
2024/01/29 04:42:07;;;;;;;6.70;4.57;;;-2.70;99.90;-3.30;101940.00;;;;4897404;28;118850;-64
2024/01/29 04:44:33;;;;;;;8.37;5.33;;;-2.80;99.90;-3.30;101946.00;;;;4898104;28;88858;-65
2024/01/29 04:46:59;;;;;;;8.07;4.67;;;-2.70;99.90;-3.30;101935.00;;;;4898757;28;89335;-64
2024/01/29 04:49:25;;;;;;;10.07;5.20;;;-2.80;99.90;-3.30;101925.00;;;;4895007;28;89597;-64
2024/01/29 04:51:50;;;;;;;8.77;5.20;;;-2.80;99.90;-3.20;101926.00;;;;4898559;28;93264;-64
2024/01/29 04:54:16;;;;;;;9.53;4.97;;;-2.80;99.90;-3.20;101932.00;;;;4911004;28;98395;-64
2024/01/29 04:56:42;;;;;;;9.20;5.57;;;-2.80;99.90;-3.20;101929.00;;;;4900143;28;111580;-64
2024/01/29 04:59:08;;;;;;;6.60;4.13;;;-2.70;99.90;-3.20;101928.00;;;;4896337;28;108476;-64
2024/01/29 05:01:33;;;;;;;6.97;4.33;;;-2.70;99.90;-3.20;101929.00;;;;4899723;28;115603;-63
2024/01/29 05:03:59;;;;;;;10.17;5.50;;;-2.70;99.90;-3.20;101938.00;;;;4895050;28;116974;-64
2024/01/29 05:06:25;;;;;;;6.83;4.73;;;-2.70;99.90;-3.20;101941.00;;;;4899667;28;87965;-65
2024/01/29 05:08:50;;;;;;;7.40;4.17;;;-2.70;99.90;-3.20;101926.00;;;;4896001;28;109861;-64
2024/01/29 05:11:16;;;;;;;6.03;4.47;;;-2.70;99.90;-3.20;101933.00;;;;4895078;28;118112;-64
2024/01/29 05:13:43;;;;;;;9.40;4.70;;;-2.60;99.90;-3.20;101923.00;;;;4895774;28;117637;-64
2024/01/29 05:16:10;;;;;;;5.97;5.03;;;-2.70;99.90;-3.20;101932.00;;;;4900675;28;95694;-64
2024/01/29 05:18:36;;;;;;;9.40;4.53;;;-2.40;99.90;-3.30;101934.00;;;;4901849;28;87928;-64
2024/01/29 05:21:03;;;;;;;8.70;4.50;;;-2.80;99.90;-3.30;101932.00;;;;4902162;28;88176;-65
2024/01/29 05:23:29;;;;;;;7.77;4.50;;;-2.80;99.90;-3.40;101922.00;;;;4913443;28;91883;-64
2024/01/29 05:25:55;;;;;;;9.60;4.67;;;-2.90;99.90;-3.40;101923.00;;;;4901162;28;111104;-64
2024/01/29 05:28:21;;;;;;;9.90;5.20;;;-2.80;99.90;-3.50;101917.00;;;;4908157;28;88107;-64
2024/01/29 05:30:47;;;;;;;6.93;4.97;;;-2.90;99.90;-3.50;101928.00;;;;4899867;28;88848;-64
2024/01/29 05:33:13;;;;;;;7.57;5.17;;;-3.10;99.90;-3.50;101915.00;;;;4902064;28;100032;-64
2024/01/29 05:35:39;;;;;;;6.60;5.07;;;-3.00;99.90;-3.60;101923.00;;;;4899912;28;110390;-64
2024/01/29 05:38:04;;;;;;;7.80;4.63;;;-2.90;99.90;-3.60;101920.00;;;;4897208;28;93879;-65
2024/01/29 05:40:31;;;;;;;14.30;6.13;;;-3.10;99.90;-3.60;101922.00;;;;4901897;28;88344;-65
2024/01/29 05:42:57;;;;;;;10.70;4.87;;;-3.00;99.90;-3.60;101927.00;;;;4891808;28;116949;-64
2024/01/29 05:45:23;;;;;;;14.37;6.10;;;-3.10;99.90;-3.70;101924.00;;;;4895517;28;109785;-64
2024/01/29 05:47:48;;;;;;;12.03;7.40;;;-3.10;99.90;-3.70;101918.00;;;;4893858;28;109075;-64
2024/01/29 05:50:14;;;;;;;8.70;5.47;;;-3.20;99.90;-3.60;101914.00;;;;4896712;28;116575;-64
2024/01/29 05:52:40;;;;;;;8.13;5.40;;;-3.10;99.90;-3.60;101917.00;;;;4893803;28;88021;-64
2024/01/29 05:55:07;;;;;;;10.27;6.87;;;-3.10;99.90;-3.60;101921.00;;;;4895375;28;110384;-64
2024/01/29 05:57:32;;;;;;;10.20;6.00;;;-3.10;99.90;-3.60;101918.00;;;;4910638;28;88167;-63
2024/01/29 05:59:58;;;;;;;14.90;6.83;;;-3.10;99.90;-3.60;101928.00;;;;4896182;28;117821;-63
2024/01/29 06:02:23;;;;;;;16.27;9.10;;;-3.00;99.90;-3.60;101926.00;;;;4894988;28;117534;-64
2024/01/29 06:04:49;;;;;;;16.73;9.77;;;-3.10;99.90;-3.60;101925.00;;;;4897972;28;109927;-64
2024/01/29 06:07:15;;;;;;;19.27;11.33;;;-3.10;99.90;-3.60;101929.00;;;;4894096;28;109196;-63
2024/01/29 06:09:41;;;;;;;13.73;8.50;;;-3.20;99.90;-3.60;101937.00;;;;4894342;28;105721;-64
2024/01/29 06:12:07;;;;;;;16.33;7.40;;;-3.10;99.90;-3.70;101926.00;;;;4894900;28;118284;-63
2024/01/29 06:14:32;;;;;;;13.23;8.20;;;-2.40;99.90;-3.60;101914.00;;;;4900638;28;93598;-64
2024/01/29 06:16:58;;;;;;;9.53;5.97;;;-3.10;99.90;-3.70;101935.00;;;;4895601;28;109027;-64
2024/01/29 06:19:24;;;;;;;8.63;5.43;;;-3.10;99.90;-3.70;101929.00;;;;4895346;28;88006;-63
2024/01/29 06:21:51;;;;;;;5.37;4.13;;;-3.10;99.90;-3.70;101936.00;;;;4896821;28;116172;-63
2024/01/29 06:24:17;;;;;;;10.57;4.90;;;-3.20;99.90;-3.70;101931.00;;;;4895496;28;110944;-63
2024/01/29 06:26:43;;;;;;;11.67;6.13;;;-3.10;99.90;-3.70;101936.00;;;;4893460;28;109035;-63
2024/01/29 06:29:09;;;;;;;9.37;5.07;;;-3.20;99.90;-3.70;101934.00;;;;4897559;28;87358;-63
2024/01/29 06:31:41;;;;;;;6.73;4.73;;;-3.20;99.90;-3.80;101932.00;;;;4897685;28;117391;-63
2024/01/29 06:34:07;;;;;;;9.60;5.07;;;-3.20;99.90;-3.80;101921.00;;;;4896636;28;87911;-65
2024/01/29 06:36:33;;;;;;;7.40;4.13;;;-3.10;99.90;-3.80;101928.00;;;;4896962;28;88603;-63
2024/01/29 06:38:59;;;;;;;7.13;4.20;;;-3.20;99.90;-3.80;101923.00;;;;4896918;28;88416;-63
2024/01/29 06:41:26;;;;;;;7.63;5.17;;;-3.20;99.90;-3.80;101935.00;;;;4894036;28;88666;-63
2024/01/29 06:43:53;;;;;;;6.77;4.33;;;-4.00;99.90;-3.80;101941.00;;;;4894692;28;87827;-63
2024/01/29 06:46:20;;;;;;;11.47;4.63;;;-3.20;99.90;-3.80;101938.00;;;;4896321;28;87866;-63
2024/01/29 06:48:46;;;;;;;5.60;4.07;;;-3.30;99.90;-3.80;101948.00;;;;4889542;28;88399;-63
2024/01/29 06:51:14;;;;;;;10.80;5.20;;;-2.90;99.90;-3.80;101940.00;;;;4892194;28;114283;-63
2024/01/29 06:53:41;;;;;;;6.97;4.47;;;-3.20;99.90;-3.80;101944.00;;;;4891837;28;87304;-63
2024/01/29 06:56:07;;;;;;;7.63;5.23;;;-3.20;99.90;-3.80;101945.00;;;;4894398;28;88074;-63
2024/01/29 06:58:36;;;;;;;7.80;5.00;;;-3.20;99.90;-3.80;101948.00;;;;4894921;28;117786;-63
2024/01/29 07:01:03;;;;;;;6.07;4.30;;;-3.10;99.90;-3.80;101952.00;;;;4896797;28;88562;-63
2024/01/29 07:03:29;;;;;;;8.13;5.23;;;-3.20;99.90;-3.80;101952.00;;;;4894530;28;88050;-63
2024/01/29 07:05:56;;;;;;;8.37;4.03;;;-3.20;99.90;-3.80;101944.00;;;;4891801;28;108993;-63
2024/01/29 07:08:22;;;;;;;9.07;4.27;;;-3.30;99.90;-3.80;101954.00;;;;4895545;28;89401;-61
2024/01/29 07:10:48;;;;;;;11.80;5.43;;;-3.30;99.90;-3.70;101958.00;;;;4895473;28;108456;-63
2024/01/29 07:13:13;;;;;;;11.03;5.23;;;-3.20;99.90;-3.60;101948.00;;;;4896233;28;110233;-63
2024/01/29 07:15:40;;;;;;;10.93;6.10;;;-3.10;99.90;-3.50;101955.00;;;;4895181;28;109325;-62
2024/01/29 07:18:06;;;;;;;15.03;7.20;;;-3.00;99.90;-3.40;101948.00;;;;4898853;28;87933;-63
2024/01/29 07:20:38;;;;;;;10.13;6.17;;;-2.90;99.90;-3.20;101956.00;;;;4894122;28;101328;-63
2024/01/29 07:23:05;;;;;;;33.60;15.17;;;-2.80;99.90;-2.90;101954.00;;;;4891211;28;88276;-63
2024/01/29 07:25:31;;;;;;;9.83;6.43;;;-2.50;99.90;-2.70;101947.00;;;;4897348;28;99033;-63
2024/01/29 07:28:00;;;;;;;8.87;6.37;;;-2.20;99.90;-2.50;101962.00;;;;4893688;28;88345;-63
2024/01/29 07:30:26;;;;;;;13.17;6.83;;;-2.10;99.90;-2.20;101956.00;;;;4893737;28;88511;-63
2024/01/29 07:32:51;;;;;;;7.93;5.23;;;-1.90;99.90;-2.00;101947.00;;;;4894754;28;87813;-64
2024/01/29 07:35:17;;;;;;;11.10;6.90;;;-1.60;99.90;-1.70;101953.00;;;;4894703;28;109040;-64
2024/01/29 07:37:43;;;;;;;12.00;8.70;;;-1.30;99.90;-1.50;101952.00;;;;4893923;28;118772;-64
2024/01/29 07:40:09;;;;;;;8.73;6.37;;;-1.10;99.90;-1.20;101950.00;;;;4892900;28;91078;-65
2024/01/29 07:42:36;;;;;;;14.27;7.53;;;-0.90;99.90;-0.90;101951.00;;;;4895767;28;98018;-63
2024/01/29 07:45:01;;;;;;;15.50;9.17;;;-0.50;99.90;-0.70;101959.00;;;;4891478;28;87872;-62
2024/01/29 07:47:27;;;;;;;14.80;10.67;;;-0.30;99.90;-0.40;101958.00;;;;4892525;28;117404;-63
2024/01/29 07:49:54;;;;;;;25.30;16.80;;;-0.10;99.90;-0.10;101961.00;;;;4892866;28;88909;-63
2024/01/29 07:52:19;;;;;;;28.57;16.13;;;0.10;99.90;0.10;101967.00;;;;4894059;28;87856;-64
2024/01/29 07:54:45;;;;;;;46.77;28.03;;;0.40;99.90;0.40;101960.00;;;;4893347;28;108724;-63
2024/01/29 07:57:10;;;;;;;45.33;27.50;;;0.70;99.90;0.70;101964.00;;;;4896280;28;116675;-63
2024/01/29 07:59:36;;;;;;;47.50;27.93;;;0.90;99.90;1.00;101975.00;;;;4890543;28;117253;-64
2024/01/29 08:02:02;;;;;;;43.90;26.07;;;1.60;99.90;1.20;101976.00;;;;4892476;28;87932;-65
2024/01/29 08:04:28;;;;;;;53.67;21.73;;;1.60;99.90;1.50;101976.00;;;;4891677;28;87896;-64
2024/01/29 08:06:54;;;;;;;40.40;22.97;;;1.80;99.90;1.70;101976.00;;;;4894162;28;87592;-64
2024/01/29 08:09:19;;;;;;;39.53;22.63;;;1.90;99.90;2.00;101970.00;;;;4890429;28;87923;-64
2024/01/29 08:11:45;;;;;;;33.67;17.87;;;2.20;99.90;2.20;101963.00;;;;4893615;28;88159;-64
2024/01/29 08:14:11;;;;;;;28.53;17.00;;;3.50;99.90;2.50;101971.00;;;;4889336;28;109866;-65
2024/01/29 08:16:37;;;;;;;30.53;15.60;;;2.70;99.90;2.80;101979.00;;;;4895847;28;88079;-64
2024/01/29 08:19:02;;;;;;;32.53;18.93;;;2.90;99.90;3.20;101975.00;;;;4891322;28;118016;-64
2024/01/29 08:21:28;;;;;;;24.83;15.13;;;3.30;99.90;3.50;101978.00;;;;4895419;28;87870;-64
2024/01/29 08:23:55;;;;;;;21.70;13.63;;;3.60;99.90;3.90;101981.00;;;;4894423;28;88247;-64
2024/01/29 08:26:21;;;;;;;21.10;12.37;;;4.00;99.90;4.30;101971.00;;;;4889472;28;115305;-65
2024/01/29 08:28:46;;;;;;;20.27;12.53;;;4.50;99.90;4.70;101964.00;;;;4893955;28;87818;-64
2024/01/29 08:31:12;;;;;;;27.50;14.33;;;5.70;99.90;5.10;101967.00;;;;4889531;28;113268;-64
2024/01/29 08:33:38;;;;;;;20.07;12.10;;;6.00;99.90;5.40;101968.00;;;;4891966;28;108475;-64
2024/01/29 08:36:04;;;;;;;17.87;11.53;;;5.70;99.90;5.80;101963.00;;;;4902511;28;118770;-65
2024/01/29 08:38:29;;;;;;;18.40;10.70;;;5.90;99.90;6.10;101963.00;;;;4890913;28;106749;-64
2024/01/29 08:40:55;;;;;;;15.57;9.50;;;6.30;99.90;6.50;101963.00;;;;4892582;28;111064;-64
2024/01/29 08:43:21;;;;;;;13.20;8.23;;;6.60;99.90;6.80;101971.00;;;;4891574;28;106772;-64
2024/01/29 08:45:46;;;;;;;15.13;8.10;;;6.90;99.90;7.20;101971.00;;;;4898144;28;104732;-64
2024/01/29 08:48:12;;;;;;;11.43;6.83;;;7.30;99.90;7.50;101974.00;;;;4893754;28;116446;-64
2024/01/29 08:50:38;;;;;;;13.97;7.90;;;7.60;99.90;7.80;101972.00;;;;4895916;28;94044;-65
2024/01/29 08:53:04;;;;;;;18.73;8.00;;;7.90;99.90;8.20;101984.00;;;;4898179;28;97159;-65
2024/01/29 08:55:31;;;;;;;16.30;8.37;;;8.20;99.90;8.50;101985.00;;;;4900929;28;116556;-64
2024/01/29 08:57:57;;;;;;;17.80;9.77;;;8.60;99.90;8.90;101978.00;;;;4895551;28;88042;-64
2024/01/29 09:00:23;;;;;;;11.90;8.20;;;8.90;99.90;9.20;101980.00;;;;4896841;28;88095;-65
2024/01/29 09:02:52;;;;;;;14.67;6.50;;;9.30;99.90;9.50;101989.00;;;;4893837;28;107927;-65
2024/01/29 09:05:18;;;;;;;9.83;5.77;;;9.50;99.90;9.70;101977.00;;;;4893918;28;88991;-66
2024/01/29 09:07:44;;;;;;;10.33;6.57;;;9.70;99.90;9.90;101987.00;;;;4897240;28;88184;-65
2024/01/29 09:10:10;;;;;;;9.27;5.17;;;10.00;99.90;10.20;101983.00;;;;4895716;28;110600;-65
2024/01/29 09:12:36;;;;;;;12.60;7.47;;;10.20;99.90;10.40;101992.00;;;;4901787;28;87739;-66
2024/01/29 09:15:04;;;;;;;10.27;4.70;;;10.50;99.90;10.70;101992.00;;;;4898108;28;111837;-66
2024/01/29 09:17:30;;;;;;;6.90;4.30;;;10.80;99.90;10.90;101994.00;;;;4893639;28;88517;-65
2024/01/29 09:19:57;;;;;;;8.43;4.73;;;10.90;99.90;11.10;101998.00;;;;4898350;28;102740;-65
2024/01/29 09:22:23;;;;;;;6.30;3.67;;;11.20;99.20;11.30;102000.00;;;;4898973;28;87940;-65
2024/01/29 09:24:49;;;;;;;9.60;6.23;;;11.30;98.50;11.50;101998.00;;;;4900296;28;89355;-66
2024/01/29 09:27:15;;;;;;;5.60;3.90;;;11.50;96.30;11.60;101990.00;;;;4897210;28;118457;-66
2024/01/29 09:29:40;;;;;;;6.17;3.67;;;11.60;94.60;11.70;101990.00;;;;4896968;28;110585;-66
2024/01/29 09:32:08;;;;;;;6.47;3.07;;;11.70;93.50;11.90;101996.00;;;;4896400;28;87912;-68
2024/01/29 09:34:34;;;;;;;5.73;3.80;;;11.30;92.60;12.00;101989.00;;;;4891808;28;89460;-67
2024/01/29 09:37:00;;;;;;;4.83;3.37;;;12.00;91.80;12.10;101995.00;;;;4895111;28;88445;-67
2024/01/29 09:39:26;;;;;;;5.53;3.23;;;12.10;90.30;12.20;102001.00;;;;4898125;28;110943;-68
2024/01/29 09:41:54;;;;;;;2.97;2.63;;;12.20;87.90;12.30;101997.00;;;;4895830;28;87921;-67
2024/01/29 09:44:21;;;;;;;8.10;3.10;;;12.30;86.60;12.40;102001.00;;;;4893632;28;87956;-68
2024/01/29 09:46:48;;;;;;;2.37;1.87;;;12.40;83.80;12.50;102002.00;;;;4907794;28;116196;-68
2024/01/29 09:49:15;;;;;;;10.13;2.67;;;12.50;82.90;12.60;101993.00;;;;4894274;28;87935;-69
2024/01/29 09:51:46;;;;;;;4.93;2.53;;;12.50;79.70;12.70;101990.00;;;;4893540;28;89305;-69
2024/01/29 09:54:11;;;;;;;2.03;1.33;;;12.60;78.10;12.80;102005.00;;;;4892702;28;116713;-68
2024/01/29 09:56:37;;;;;;;8.07;2.93;;;12.80;77.50;12.90;101994.00;;;;4892876;28;111672;-68
2024/01/29 09:59:03;;;;;;;2.03;1.83;;;12.80;76.00;13.10;102006.00;;;;4891484;28;111295;-69
2024/01/29 10:01:30;;;;;;;2.43;1.33;;;13.00;75.70;13.40;102000.00;;;;4893190;28;109666;-69
2024/01/29 10:03:55;;;;;;;2.20;1.40;;;13.30;75.50;13.60;102002.00;;;;4893402;28;117398;-67
2024/01/29 10:06:21;;;;;;;3.60;2.07;;;13.40;72.60;13.70;101994.00;;;;4897060;28;117023;-68
2024/01/29 10:08:47;;;;;;;3.10;2.00;;;13.60;66.90;13.60;101993.00;;;;4891824;28;87257;-68
2024/01/29 10:11:13;;;;;;;2.30;1.47;;;13.60;62.90;13.60;101990.00;;;;4905527;28;108884;-69
2024/01/29 10:13:39;;;;;;;2.85;1.67;;;13.60;62.20;13.60;101990.00;;;;4909344;28;88245;-67
2024/01/29 10:16:06;;;;;;;4.10;2.20;;;13.50;61.30;13.60;101985.00;;;;4893405;28;89027;-69
2024/01/29 10:18:31;;;;;;;2.53;1.60;;;13.60;62.30;13.70;101988.00;;;;4895546;28;99419;-67
2024/01/29 10:21:04;;;;;;;3.43;1.97;;;13.60;60.90;13.70;101987.00;;;;4897003;28;108038;-68
2024/01/29 10:23:30;;;;;;;3.00;1.30;;;13.60;59.60;13.70;101986.00;;;;4908664;28;87809;-68
2024/01/29 10:25:57;;;;;;;1.47;1.37;;;13.70;59.60;13.80;101993.00;;;;4893166;28;117151;-66
2024/01/29 10:28:26;;;;;;;2.73;1.53;;;13.70;60.30;14.00;101983.00;;;;4895074;28;87789;-66
2024/01/29 10:30:52;;;;;;;2.63;1.35;;;13.80;59.40;14.00;101978.00;;;;4895461;28;87996;-66
2024/01/29 10:33:18;;;;;;;3.10;1.90;;;14.00;57.40;14.00;101976.00;;;;4891993;28;100013;-66
2024/01/29 10:35:44;;;;;;;4.47;1.30;;;14.00;55.60;14.00;101975.00;;;;4894601;28;116212;-67
2024/01/29 10:38:14;;;;;;;2.72;1.73;;;13.90;55.50;13.90;101976.00;;;;4892011;28;106500;-66